Time;durP1;ratioP1;P1;durP2;ratioP2;P2;SDS_P1;SDS_P2;PMS_P1;PMS_P2;Temp;Humidity;BMP_temperature;BMP_pressure;BME280_temperature;BME280_humidity;BME280_pressure;Samples;Min_cycle;Max_cycle;Signal;HPM_P1;HPM_P2
2023/09/12 00:01:58;;;;;;;33.87;13.43;;;17.90;1.00;;;;;;4937629;29;20790;-82
2023/09/12 00:04:23;;;;;;;29.00;12.10;;;17.90;1.00;;;;;;4938263;29;20393;-82
2023/09/12 00:06:51;;;;;;;31.50;11.87;;;17.90;1.00;;;;;;4947221;29;20397;-82
2023/09/12 00:09:45;;;;;;;27.97;12.40;;;17.90;1.00;;;;;;4938430;29;20183;-82
2023/09/12 00:12:16;;;;;;;35.57;12.87;;;17.90;1.00;;;;;;4943302;29;20482;-82
2023/09/12 00:14:42;;;;;;;28.67;12.93;;;17.80;1.00;;;;;;4921950;29;20413;-82
2023/09/12 00:17:27;;;;;;;30.90;13.67;;;17.80;1.00;;;;;;4926125;29;20399;-82
2023/09/12 00:19:57;;;;;;;35.07;12.67;;;17.80;1.00;;;;;;4929790;29;20179;-82
2023/09/12 00:22:53;;;;;;;31.67;12.60;;;17.80;1.00;;;;;;4934991;29;20453;-80
2023/09/12 00:25:39;;;;;;;26.97;12.70;;;17.80;1.00;;;;;;4935875;29;20513;-81
2023/09/12 00:28:22;;;;;;;25.53;12.27;;;17.80;1.00;;;;;;4939073;29;20393;-81
2023/09/12 00:31:15;;;;;;;36.03;13.27;;;17.80;1.00;;;;;;4938198;29;20477;-80
2023/09/12 00:33:57;;;;;;;33.27;12.83;;;17.80;1.00;;;;;;4939932;29;20461;-80
2023/09/12 00:36:27;;;;;;;25.50;12.10;;;17.80;1.00;;;;;;4929411;29;20454;-81
2023/09/12 00:38:57;;;;;;;35.43;12.70;;;17.80;1.00;;;;;;4937131;29;20984;-81
2023/09/12 00:41:51;;;;;;;27.57;14.20;;;17.80;1.00;;;;;;4937132;29;20957;-81
2023/09/12 00:44:17;;;;;;;26.10;13.63;;;17.80;1.00;;;;;;4938747;29;20401;-81
2023/09/12 00:46:58;;;;;;;30.10;14.20;;;17.80;1.00;;;;;;4948670;29;20418;-81
2023/09/12 00:49:29;;;;;;;33.20;14.50;;;17.80;1.00;;;;;;4936791;29;20270;-81
2023/09/12 00:52:04;;;;;;;32.10;13.17;;;17.80;1.00;;;;;;4947668;29;20755;-81
2023/09/12 00:55:09;;;;;;;23.13;13.00;;;17.80;1.00;;;;;;4934966;29;20454;-80
2023/09/12 00:57:35;;;;;;;23.93;13.30;;;17.80;1.00;;;;;;4933890;29;20413;-81
2023/09/12 01:00:27;;;;;;;40.83;13.93;;;17.80;1.00;;;;;;4936735;29;20472;-80
2023/09/12 01:06:22;;;;;;;42.07;13.10;;;17.80;1.00;;;;;;4931697;29;20885;-80
2023/09/12 01:08:48;;;;;;;34.60;15.40;;;17.80;1.00;;;;;;4936290;29;20505;-80
2023/09/12 01:11:57;;;;;;;27.00;12.90;;;17.70;1.00;;;;;;4942901;29;20421;-81
2023/09/12 01:14:39;;;;;;;36.37;12.97;;;17.70;1.00;;;;;;4923269;29;20204;-80
2023/09/12 01:17:09;;;;;;;31.27;14.53;;;17.70;1.00;;;;;;4934739;29;20405;-80
2023/09/12 01:19:48;;;;;;;38.03;13.23;;;17.70;1.00;;;;;;4936274;29;20442;-81
2023/09/12 01:22:31;;;;;;;21.70;13.40;;;17.60;1.00;;;;;;4927210;29;20441;-80
2023/09/12 01:25:34;;;;;;;28.30;13.30;;;17.60;1.00;;;;;;4932985;29;20426;-80
2023/09/12 01:28:10;;;;;;;28.83;12.90;;;17.60;1.00;;;;;;4936465;29;20463;-81
2023/09/12 01:30:46;;;;;;;25.93;12.63;;;;;;;;;;4930830;29;20501;-90
2023/09/12 01:33:12;;;;;;;23.23;12.77;;;;;;;;;;4936951;29;20991;-91
2023/09/12 01:35:40;;;;;;;34.83;13.97;;;;;;;;;;4953317;29;20426;-91
2023/09/12 01:38:45;;;;;;;41.13;13.40;;;17.50;1.00;;;;;;4930333;29;20417;-92
2023/09/12 01:41:16;;;;;;;28.40;12.13;;;17.50;1.00;;;;;;4921631;29;20419;-92
2023/09/12 01:43:48;;;;;;;26.80;13.30;;;17.50;1.00;;;;;;4932972;29;20413;-92
2023/09/12 01:46:17;;;;;;;29.57;13.40;;;17.40;1.00;;;;;;4937284;29;20401;-92
2023/09/12 01:48:50;;;;;;;31.13;14.33;;;17.40;1.00;;;;;;4936077;29;20401;-92
2023/09/12 01:51:39;;;;;;;37.10;14.17;;;17.40;1.00;;;;;;4937301;29;20403;-92
2023/09/12 01:54:06;;;;;;;24.90;13.87;;;17.40;1.00;;;;;;4937027;29;20568;-91
2023/09/12 01:59:54;;;;;;;25.40;13.20;;;17.40;1.00;;;;;;4919314;29;20389;-91
2023/09/12 02:02:20;;;;;;;25.13;13.93;;;17.40;1.00;;;;;;4928946;29;20421;-91
2023/09/12 02:05:07;;;;;;;28.43;13.90;;;17.30;1.00;;;;;;4935598;29;20246;-92
2023/09/12 02:07:37;;;;;;;36.97;14.90;;;17.30;1.00;;;;;;4940061;29;20179;-91
2023/09/12 02:10:04;;;;;;;28.40;12.73;;;17.30;1.00;;;;;;4935913;29;20444;-92
2023/09/12 02:12:33;;;;;;;36.53;15.00;;;17.30;1.00;;;;;;4926060;29;20480;-92
2023/09/12 02:14:59;;;;;;;36.10;14.10;;;17.20;1.00;;;;;;4932602;29;20490;-92
2023/09/12 02:17:25;;;;;;;27.70;13.37;;;17.20;1.00;;;;;;4936362;29;20418;-92
2023/09/12 02:19:50;;;;;;;35.47;14.80;;;17.20;1.00;;;;;;4933702;29;20540;-93
2023/09/12 02:22:16;;;;;;;41.27;14.33;;;17.20;1.00;;;;;;4944843;29;20212;-92
2023/09/12 02:24:42;;;;;;;32.73;15.03;;;17.00;1.90;;;;;;4940663;29;20700;-91
2023/09/12 02:27:07;;;;;;;28.23;14.10;;;17.00;3.70;;;;;;4936103;29;20190;-91
2023/09/12 02:29:34;;;;;;;29.83;15.00;;;;;;;;;;4932256;29;20195;-91
2023/09/12 02:32:00;;;;;;;30.33;14.17;;;;;;;;;;4928488;29;20186;-91
2023/09/12 02:37:47;;;;;;;32.43;14.00;;;17.10;1.10;;;;;;4923116;29;20424;-91
2023/09/12 02:43:35;;;;;;;29.93;14.17;;;17.10;1.00;;;;;;4937442;29;20190;-91
2023/09/12 02:46:45;;;;;;;33.60;15.53;;;17.00;1.00;;;;;;4944747;29;20425;-91
2023/09/12 02:49:57;;;;;;;25.00;13.97;;;17.00;1.00;;;;;;4942497;29;20193;-91
2023/09/12 02:55:44;;;;;;;38.17;14.70;;;16.90;1.00;;;;;;4936998;29;20887;-91
2023/09/12 02:58:57;;;;;;;35.40;15.10;;;16.90;3.00;;;;;;4936201;29;20422;-91
2023/09/12 03:01:58;;;;;;;33.63;15.60;;;16.90;5.10;;;;;;4928763;29;20182;-91
2023/09/12 03:04:35;;;;;;;25.60;14.10;;;16.90;6.10;;;;;;4935413;29;20422;-91
2023/09/12 03:07:15;;;;;;;32.77;14.37;;;16.90;6.60;;;;;;4927299;29;20412;-91
2023/09/12 03:13:03;;;;;;;27.30;14.20;;;16.90;6.30;;;;;;4924443;29;20975;-92
2023/09/12 03:18:51;;;;;;;28.07;14.67;;;16.80;7.60;;;;;;4929473;29;20203;-92
2023/09/12 03:21:16;;;;;;;25.53;15.37;;;16.80;9.00;;;;;;4941637;29;20856;-91
2023/09/12 03:24:18;;;;;;;29.17;14.57;;;16.80;13.70;;;;;;4955509;29;20664;-91
2023/09/12 03:30:06;;;;;;;33.23;14.17;;;16.90;10.90;;;;;;4928018;29;20497;-91
2023/09/12 03:42:51;;;;;;;33.83;13.20;;;17.00;11.60;;;;;;4917665;29;20946;-91
2023/09/12 03:48:39;;;;;;;25.77;13.33;;;17.10;12.60;;;;;;4936679;29;20438;-90
2023/09/12 03:54:26;;;;;;;28.30;14.73;;;17.20;14.70;;;;;;4928886;29;20246;-91
2023/09/12 04:00:21;;;;;;;37.83;15.37;;;17.10;12.40;;;;;;4927546;29;20189;-91
2023/09/12 04:13:39;;;;;;;26.47;13.90;;;17.50;17.20;;;;;;4924148;29;20482;-90
2023/09/12 04:16:04;;;;;;;31.57;14.13;;;17.50;15.80;;;;;;4951400;28;20450;-91
2023/09/12 04:21:52;;;;;;;38.13;14.10;;;17.60;14.70;;;;;;4933808;29;20210;-91
2023/09/12 04:25:13;;;;;;;31.63;15.60;;;17.60;13.50;;;;;;4939101;29;20404;-90
2023/09/12 04:31:04;;;;;;;31.37;13.93;;;17.70;8.90;;;;;;4953947;29;20425;-91
2023/09/12 04:36:53;;;;;;;24.13;13.70;;;17.70;7.80;;;;;;4934893;29;20396;-91
2023/09/12 04:42:40;;;;;;;29.47;14.53;;;17.70;11.80;;;;;;4946073;28;20934;-90
2023/09/12 04:51:50;;;;;;;32.63;13.50;;;;;;;;;;4949136;29;20394;-90
2023/09/12 04:55:09;;;;;;;29.43;13.73;;;17.90;7.50;;;;;;4937339;29;20430;-90
2023/09/12 04:57:51;;;;;;;23.07;12.70;;;18.00;4.50;;;;;;4937869;29;20412;-91
2023/09/12 05:03:57;;;;;;;25.03;11.90;;;18.00;7.50;;;;;;4941384;29;20477;-91
2023/09/12 05:07:09;;;;;;;23.03;12.10;;;18.00;6.30;;;;;;4940598;29;20491;-91
2023/09/12 05:10:03;;;;;;;27.40;12.33;;;18.00;6.30;;;;;;4942351;29;20443;-93
2023/09/12 05:16:45;;;;;;;28.33;12.80;;;18.10;4.10;;;;;;4949958;29;20937;-89
2023/09/12 05:19:23;;;;;;;25.53;11.53;;;18.10;5.50;;;;;;4950799;29;20414;-90
2023/09/12 05:31:54;;;;;;;29.33;11.93;;;18.30;1.00;;;;;;4951115;29;20384;-90
2023/09/12 05:35:03;;;;;;;28.73;12.33;;;18.50;1.00;;;;;;4951612;28;20808;-90
2023/09/12 05:38:09;;;;;;;27.60;10.60;;;18.50;1.00;;;;;;4942941;29;20742;-90
2023/09/12 05:44:33;;;;;;;26.67;12.77;;;18.70;1.00;;;;;;4941668;29;20424;-90
2023/09/12 05:47:21;;;;;;;39.17;12.13;;;18.80;1.00;;;;;;4936980;29;20497;-90
2023/09/12 05:56:30;;;;;;;26.63;11.77;;;19.00;1.00;;;;;;4937867;29;20443;-90
2023/09/12 06:02:18;;;;;;;35.60;11.27;;;19.20;1.00;;;;;;4947837;29;20662;-90
2023/09/12 06:08:22;;;;;;;24.50;10.93;;;19.30;1.00;;;;;;4932834;29;20420;-81
2023/09/12 06:10:48;;;;;;;26.27;11.90;;;19.50;1.00;;;;;;4937425;29;20394;-82
2023/09/12 06:16:51;;;;;;;29.37;10.60;;;19.60;1.00;;;;;;4944200;29;20412;-81
2023/09/12 06:19:19;;;;;;;23.47;10.93;;;19.70;1.00;;;;;;4938373;29;20429;-82
2023/09/12 06:22:39;;;;;;;37.67;11.50;;;19.90;1.00;;;;;;4937337;29;20794;-82
2023/09/12 06:25:06;;;;;;;26.00;11.20;;;19.90;1.00;;;;;;4936729;29;20831;-82
2023/09/12 06:27:39;;;;;;;27.40;9.83;;;20.00;1.00;;;;;;4941958;29;20514;-81
2023/09/12 06:33:39;;;;;;;26.50;10.30;;;20.10;1.00;;;;;;4930274;29;20451;-81
2023/09/12 06:36:45;;;;;;;22.83;10.57;;;20.20;1.00;;;;;;4933599;29;20424;-81
2023/09/12 06:39:27;;;;;;;22.37;10.30;;;20.20;1.00;;;;;;4939318;29;20905;-81
2023/09/12 06:42:03;;;;;;;35.33;10.10;;;20.20;1.00;;;;;;4938584;29;20920;-80
2023/09/12 06:44:39;;;;;;;27.87;10.17;;;20.20;1.00;;;;;;4947437;29;20399;-81
2023/09/12 06:47:21;;;;;;;17.50;10.07;;;20.10;1.00;;;;;;4927533;28;20396;-80
2023/09/12 06:49:57;;;;;;;24.50;10.27;;;20.10;1.00;;;;;;4942718;28;20435;-80
2023/09/12 06:52:33;;;;;;;21.30;10.37;;;20.10;1.00;;;;;;4917547;29;20405;-81
2023/09/12 06:55:15;;;;;;;29.60;10.40;;;20.10;1.00;;;;;;4930189;29;20909;-80
2023/09/12 06:58:27;;;;;;;20.23;10.00;;;20.10;1.00;;;;;;4939390;29;20894;-81
2023/09/12 07:01:12;;;;;;;24.30;10.77;;;20.20;1.00;;;;;;4935056;29;20452;-80
2023/09/12 07:03:40;;;;;;;32.33;9.43;;;20.30;1.00;;;;;;4930909;29;20460;-81
2023/09/12 07:06:16;;;;;;;26.03;10.10;;;;;;;;;;4942669;29;20857;-80
2023/09/12 07:09:21;;;;;;;27.53;9.80;;;20.40;1.00;;;;;;4924778;29;20841;-81
2023/09/12 07:15:15;;;;;;;29.23;10.33;;;20.50;1.00;;;;;;4925535;29;20415;-82
2023/09/12 07:17:41;;;;;;;28.40;8.70;;;20.60;1.00;;;;;;4938103;29;20432;-82
2023/09/12 07:20:11;;;;;;;40.33;9.20;;;20.60;1.00;;;;;;4934658;29;20412;-82
2023/09/12 07:22:39;;;;;;;24.23;8.73;;;20.70;1.00;;;;;;4939060;29;20279;-82
2023/09/12 07:25:16;;;;;;;24.57;8.40;;;20.80;1.00;;;;;;4935000;29;20445;-81
2023/09/12 07:27:57;;;;;;;25.97;8.90;;;20.80;1.00;;;;;;4933445;29;20470;-81
2023/09/12 07:30:24;;;;;;;15.53;8.50;;;20.90;1.00;;;;;;4934154;29;20793;-81
2023/09/12 07:33:04;;;;;;;21.00;8.37;;;21.00;1.00;;;;;;4928982;29;20461;-81
2023/09/12 07:36:03;;;;;;;29.77;9.77;;;21.00;1.00;;;;;;4939420;29;20432;-80
2023/09/12 07:38:51;;;;;;;25.07;8.10;;;21.10;1.00;;;;;;4940652;29;21004;-80
2023/09/12 07:41:33;;;;;;;21.80;8.50;;;21.30;1.00;;;;;;4915994;29;20413;-82
2023/09/12 07:44:15;;;;;;;22.33;8.77;;;21.30;1.00;;;;;;4946534;29;20446;-82
2023/09/12 07:46:41;;;;;;;18.57;8.33;;;21.40;1.00;;;;;;4929986;29;21077;-82
2023/09/12 07:49:09;;;;;;;23.37;8.50;;;21.50;1.00;;;;;;4937183;29;20863;-82
2023/09/12 07:52:03;;;;;;;20.67;8.40;;;21.70;1.00;;;;;;4953526;29;20486;-82
2023/09/12 07:54:30;;;;;;;16.80;8.60;;;21.70;1.00;;;;;;4958112;29;20423;-81
2023/09/12 08:00:43;;;;;;;13.57;7.57;;;21.90;1.00;;;;;;4934176;29;20789;-80
2023/09/12 08:03:57;;;;;;;17.33;7.90;;;22.00;1.00;;;;;;4936177;29;20852;-81
2023/09/12 08:06:24;;;;;;;27.97;7.93;;;22.10;1.00;;;;;;4947541;28;20798;-81
2023/09/12 08:08:57;;;;;;;19.33;7.87;;;22.20;1.00;;;;;;4937859;29;21017;-81
2023/09/12 08:14:52;;;;;;;14.33;7.80;;;22.40;1.00;;;;;;4938131;29;20502;-82
2023/09/12 08:17:33;;;;;;;24.80;8.90;;;22.60;1.00;;;;;;4931020;29;20459;-82
2023/09/12 08:20:51;;;;;;;16.97;6.90;;;22.90;1.00;;;;;;4928539;29;20769;-82
2023/09/12 08:23:51;;;;;;;17.53;7.50;;;22.90;1.00;;;;;;4934898;29;20388;-83
2023/09/12 08:26:51;;;;;;;14.43;7.37;;;23.00;1.00;;;;;;4935785;29;20437;-82
2023/09/12 08:29:39;;;;;;;16.33;8.10;;;23.00;1.00;;;;;;4937497;29;20478;-81
2023/09/12 08:32:05;;;;;;;24.60;7.50;;;23.20;1.00;;;;;;4938797;29;20414;-82
2023/09/12 08:35:09;;;;;;;22.53;8.43;;;23.30;1.00;;;;;;4925972;29;20438;-82
2023/09/12 08:37:34;;;;;;;27.43;7.83;;;23.40;1.00;;;;;;4931033;29;20186;-81
2023/09/12 08:40:23;;;;;;;19.67;7.67;;;23.50;1.00;;;;;;4947503;29;20409;-82
2023/09/12 08:43:30;;;;;;;12.77;7.23;;;23.60;1.00;;;;;;4935706;29;20211;-81
2023/09/12 08:46:04;;;;;;;12.33;6.70;;;23.80;1.00;;;;;;4940576;29;20540;-82
2023/09/12 08:48:31;;;;;;;23.30;7.80;;;23.80;1.00;;;;;;4950453;29;20414;-81
2023/09/12 08:51:28;;;;;;;18.23;8.00;;;23.90;1.00;;;;;;4946940;29;20505;-82
2023/09/12 08:53:57;;;;;;;13.73;7.40;;;24.10;1.00;;;;;;4949116;29;20558;-81
2023/09/12 08:57:03;;;;;;;13.97;7.83;;;24.20;1.00;;;;;;4938240;29;20932;-81
2023/09/12 09:03:33;;;;;;;15.30;7.60;;;24.40;1.00;;;;;;4937552;29;20441;-81
2023/09/12 09:06:22;;;;;;;17.93;7.23;;;24.40;1.00;;;;;;4946856;29;20485;-81
2023/09/12 09:12:34;;;;;;;12.90;7.43;;;24.70;1.00;;;;;;4924473;29;20438;-82
2023/09/12 09:15:30;;;;;;;22.00;7.87;;;24.80;1.00;;;;;;4927899;29;20454;-82
2023/09/12 09:18:12;;;;;;;19.50;7.70;;;24.90;1.00;;;;;;4898766;29;20426;-82
2023/09/12 09:21:30;;;;;;;16.07;7.70;;;25.00;1.00;;;;;;4906416;29;20521;-81
2023/09/12 09:24:17;;;;;;;21.23;7.27;;;25.10;1.00;;;;;;4845204;29;20447;-81
2023/09/12 09:27:03;;;;;;;18.87;7.43;;;25.30;1.00;;;;;;4846651;29;20448;-81
2023/09/12 09:29:51;;;;;;;21.17;7.90;;;25.30;1.00;;;;;;4850643;29;20444;-81
2023/09/12 09:32:51;;;;;;;20.43;7.27;;;25.50;1.00;;;;;;4841847;29;20477;-82
2023/09/12 09:35:17;;;;;;;17.60;7.03;;;25.50;1.00;;;;;;4856892;29;20514;-83
2023/09/12 09:38:05;;;;;;;15.57;7.00;;;25.60;1.00;;;;;;4840582;29;20440;-81
2023/09/12 09:40:35;;;;;;;23.33;7.13;;;25.60;1.00;;;;;;4826632;29;20234;-83
2023/09/12 09:43:36;;;;;;;15.60;7.40;;;25.80;1.00;;;;;;4839006;29;20443;-83
2023/09/12 09:52:58;;;;;;;21.17;7.20;;;26.10;1.00;;;;;;4821929;29;20560;-82
2023/09/12 09:55:51;;;;;;;16.70;7.67;;;26.10;1.00;;;;;;4859300;29;20466;-82
2023/09/12 09:58:23;;;;;;;18.17;7.20;;;26.10;1.00;;;;;;4863709;29;20453;-82
2023/09/12 10:00:51;;;;;;;18.63;7.33;;;26.40;1.00;;;;;;4941072;29;20437;-83
2023/09/12 10:04:09;;;;;;;18.50;7.77;;;26.40;1.00;;;;;;4918812;29;20445;-83
2023/09/12 10:06:55;;;;;;;11.37;7.27;;;26.50;1.00;;;;;;4928111;29;20434;-83
2023/09/12 10:09:26;;;;;;;18.00;7.60;;;26.70;1.00;;;;;;4945675;28;20426;-83
2023/09/12 10:15:51;;;;;;;14.70;6.50;;;26.90;1.00;;;;;;4934407;29;20440;-84
2023/09/12 10:19:10;;;;;;;26.70;6.87;;;27.10;1.00;;;;;;4928125;29;20421;-83
2023/09/12 10:24:59;;;;;;;11.30;6.00;;;27.20;1.00;;;;;;4926553;29;21000;-82
2023/09/12 10:27:25;;;;;;;18.37;6.30;;;27.40;1.00;;;;;;4948412;29;20446;-82
2023/09/12 10:33:51;;;;;;;22.00;6.50;;;27.50;1.00;;;;;;4937530;29;20474;-90
2023/09/12 10:36:40;;;;;;;14.03;6.30;;;27.60;1.00;;;;;;4941324;29;20937;-91
2023/09/12 10:39:45;;;;;;;23.80;6.13;;;27.80;1.00;;;;;;4937250;29;20791;-91
2023/09/12 10:45:33;;;;;;;19.40;7.10;;;27.90;1.00;;;;;;4942765;29;20851;-81
2023/09/12 10:47:58;;;;;;;17.73;6.47;;;28.10;1.00;;;;;;4933207;29;20462;-81
2023/09/12 10:51:09;;;;;;;14.80;6.87;;;28.10;1.00;;;;;;4945351;28;20464;-81
2023/09/12 10:53:57;;;;;;;19.43;7.20;;;28.20;1.00;;;;;;4941631;29;20237;-82
2023/09/12 10:56:29;;;;;;;20.20;7.30;;;28.30;1.00;;;;;;4945704;29;20433;-81
2023/09/12 10:59:06;;;;;;;12.57;6.73;;;28.40;1.00;;;;;;4942031;29;20511;-82
2023/09/12 11:01:51;;;;;;;17.73;7.20;;;28.60;1.00;;;;;;4934863;29;20438;-82
2023/09/12 11:04:24;;;;;;;18.87;7.40;;;28.90;1.00;;;;;;4938894;29;20530;-82
2023/09/12 11:07:27;;;;;;;16.23;6.57;;;28.80;1.00;;;;;;4938245;29;20470;-82
2023/09/12 11:10:18;;;;;;;24.37;6.57;;;28.90;1.00;;;;;;4947854;29;20452;-82
2023/09/12 11:12:53;;;;;;;31.50;7.00;;;29.00;1.00;;;;;;4924245;29;20926;-81
2023/09/12 11:15:25;;;;;;;18.83;7.20;;;29.00;1.00;;;;;;4938004;29;20530;-82
2023/09/12 11:18:05;;;;;;;16.87;6.63;;;29.10;1.00;;;;;;4948587;29;20565;-82
2023/09/12 11:20:53;;;;;;;12.33;6.67;;;28.90;1.00;;;;;;4937109;29;20445;-82
2023/09/12 11:23:39;;;;;;;13.67;7.30;;;28.90;1.00;;;;;;4929288;29;20787;-81
2023/09/12 11:26:06;;;;;;;15.93;7.90;;;28.90;1.00;;;;;;4923938;29;20490;-81
2023/09/12 11:28:34;;;;;;;24.70;6.37;;;28.90;1.00;;;;;;4942254;29;20441;-82
2023/09/12 11:34:51;;;;;;;15.90;7.00;;;29.10;1.00;;;;;;4941532;29;20536;-91
2023/09/12 11:41:03;;;;;;;19.00;6.60;;;29.60;1.00;;;;;;4939847;29;20788;-89
2023/09/12 11:43:29;;;;;;;15.00;7.87;;;30.10;1.00;;;;;;4924042;29;20424;-86
2023/09/12 11:46:15;;;;;;;16.93;6.70;;;30.30;1.00;;;;;;4941778;29;20527;-87
2023/09/12 11:48:46;;;;;;;27.27;7.57;;;30.90;1.00;;;;;;4931812;29;20246;-87
2023/09/12 11:54:33;;;;;;;16.60;7.80;;;31.20;1.00;;;;;;4942133;29;20491;-88
2023/09/12 11:57:39;;;;;;;16.80;7.10;;;31.30;1.00;;;;;;4931910;29;20439;-87
2023/09/12 12:00:08;;;;;;;12.60;6.90;;;31.10;1.00;;;;;;4947699;29;20194;-83
2023/09/12 12:02:46;;;;;;;24.53;6.63;;;31.10;1.00;;;;;;4934369;29;20565;-82
2023/09/12 12:05:16;;;;;;;27.80;7.70;;;31.10;1.00;;;;;;4941732;29;20874;-81
2023/09/12 12:07:47;;;;;;;26.50;7.33;;;31.10;1.00;;;;;;4941313;29;20435;-82
2023/09/12 12:10:13;;;;;;;15.83;8.10;;;31.10;1.00;;;;;;4941623;29;20445;-82
2023/09/12 12:12:53;;;;;;;24.13;6.63;;;31.20;1.00;;;;;;4942164;29;20530;-82
2023/09/12 12:18:55;;;;;;;15.67;8.00;;;31.00;1.00;;;;;;4943092;29;20418;-86
2023/09/12 12:21:28;;;;;;;18.27;7.20;;;31.00;1.00;;;;;;4931274;29;20783;-87
2023/09/12 12:24:36;;;;;;;15.40;7.27;;;31.00;1.00;;;;;;4941664;29;20420;-88
2023/09/12 12:27:27;;;;;;;18.23;6.83;;;31.20;1.00;;;;;;4949034;29;20513;-89
2023/09/12 12:29:57;;;;;;;15.73;7.83;;;31.50;1.00;;;;;;4940002;29;20488;-82
2023/09/12 12:32:28;;;;;;;15.17;7.67;;;31.50;1.00;;;;;;4941660;29;20430;-81
2023/09/12 12:34:53;;;;;;;14.90;7.83;;;31.60;1.00;;;;;;4941537;29;20886;-83
2023/09/12 12:37:30;;;;;;;19.47;7.87;;;31.60;1.00;;;;;;4937638;29;20408;-83
2023/09/12 12:40:16;;;;;;;18.57;7.20;;;31.50;1.00;;;;;;4937522;29;20183;-82
2023/09/12 12:42:52;;;;;;;21.07;7.97;;;31.40;1.00;;;;;;4948269;29;20422;-82
2023/09/12 12:46:05;;;;;;;21.03;8.30;;;31.30;1.00;;;;;;4952464;29;20415;-87
2023/09/12 12:48:51;;;;;;;15.50;8.80;;;31.40;1.00;;;;;;4954123;28;20434;-87
2023/09/12 12:51:42;;;;;;;22.43;8.20;;;31.60;1.00;;;;;;4954684;29;20423;-87
2023/09/12 12:54:07;;;;;;;17.70;8.20;;;31.20;1.00;;;;;;4954381;28;20487;-89
2023/09/12 12:56:40;;;;;;;16.77;7.60;;;31.30;1.00;;;;;;4929999;29;20823;-83
2023/09/12 12:59:29;;;;;;;19.00;8.13;;;31.50;1.00;;;;;;4951584;29;20259;-91
2023/09/12 13:01:57;;;;;;;14.57;8.00;;;31.60;1.00;;;;;;4941657;29;20850;-82
2023/09/12 13:04:54;;;;;;;19.70;8.37;;;31.60;1.00;;;;;;4934852;29;20958;-82
2023/09/12 13:07:28;;;;;;;10.97;7.30;;;31.60;1.00;;;;;;4897853;29;20960;-83
2023/09/12 13:09:57;;;;;;;16.87;8.93;;;31.60;1.00;;;;;;4895623;29;20448;-84
2023/09/12 13:12:28;;;;;;;20.03;7.77;;;31.60;1.00;;;;;;4897277;29;20441;-82
2023/09/12 13:14:58;;;;;;;15.20;8.17;;;31.50;1.00;;;;;;4895177;29;20530;-83
2023/09/12 13:17:34;;;;;;;20.33;8.13;;;31.50;1.00;;;;;;4894918;29;20525;-90
2023/09/12 13:23:21;;;;;;;16.77;8.00;;;31.40;1.00;;;;;;4899129;29;20489;-91
2023/09/12 13:25:46;;;;;;;13.50;7.10;;;31.50;1.00;;;;;;4890235;29;20635;-87
2023/09/12 13:28:27;;;;;;;17.50;8.20;;;31.50;1.00;;;;;;4882835;29;20173;-88
2023/09/12 13:30:53;;;;;;;15.50;7.77;;;31.70;1.00;;;;;;4888279;29;20564;-82
2023/09/12 13:33:34;;;;;;;17.87;7.83;;;31.60;1.00;;;;;;4894668;29;20467;-82
2023/09/12 13:36:10;;;;;;;17.07;6.80;;;31.60;1.00;;;;;;4882922;29;20185;-82
2023/09/12 13:38:39;;;;;;;16.07;7.60;;;31.60;1.00;;;;;;4891801;29;20562;-82
2023/09/12 13:41:27;;;;;;;18.27;7.83;;;31.70;1.00;;;;;;4898384;29;20500;-82
2023/09/12 13:44:10;;;;;;;31.20;8.40;;;31.90;1.00;;;;;;4927062;28;20486;-82
2023/09/12 13:47:27;;;;;;;17.00;8.20;;;31.80;1.00;;;;;;4942639;29;20426;-91
2023/09/12 13:53:15;;;;;;;14.93;7.67;;;;;;;;;;4939185;29;20458;-90
2023/09/12 13:55:58;;;;;;;14.53;8.43;;;31.80;1.00;;;;;;4927315;29;20435;-90
2023/09/12 13:58:57;;;;;;;18.53;8.03;;;31.90;1.00;;;;;;4937205;29;20424;-91
2023/09/12 14:01:28;;;;;;;15.00;7.80;;;32.10;1.00;;;;;;4948098;29;20831;-82
2023/09/12 14:03:53;;;;;;;20.90;7.70;;;32.10;1.00;;;;;;4919725;29;20444;-83
2023/09/12 14:06:22;;;;;;;19.33;7.70;;;32.20;1.00;;;;;;4929925;29;20424;-82
2023/09/12 14:09:16;;;;;;;15.93;7.70;;;32.40;1.00;;;;;;4934769;29;20643;-83
2023/09/12 14:11:52;;;;;;;24.27;7.93;;;32.30;1.00;;;;;;4929876;29;20954;-85
2023/09/12 14:14:28;;;;;;;19.80;7.80;;;32.20;1.00;;;;;;4937770;29;20451;-82
2023/09/12 14:17:28;;;;;;;18.73;6.70;;;32.40;1.00;;;;;;4932061;29;20951;-86
2023/09/12 14:20:27;;;;;;;12.03;7.10;;;32.40;1.00;;;;;;4933803;29;20924;-88
2023/09/12 14:23:27;;;;;;;23.40;7.73;;;32.50;1.00;;;;;;4935684;29;20431;-87
2023/09/12 14:25:53;;;;;;;15.50;7.50;;;32.50;1.00;;;;;;4936481;29;20487;-90
2023/09/12 14:28:28;;;;;;;16.63;7.27;;;32.20;1.00;;;;;;4932710;29;20435;-93
2023/09/12 14:30:58;;;;;;;16.53;7.93;;;31.90;1.00;;;;;;4935399;29;20265;-82
2023/09/12 14:33:28;;;;;;;17.50;7.83;;;31.80;1.00;;;;;;4940334;29;20461;-83
2023/09/12 14:35:58;;;;;;;18.60;6.83;;;31.80;1.00;;;;;;4917899;29;20943;-83
2023/09/12 14:38:39;;;;;;;14.07;7.47;;;32.00;1.00;;;;;;4954668;29;20411;-83
2023/09/12 14:41:05;;;;;;;14.40;6.60;;;32.20;1.00;;;;;;4949487;29;20767;-83
2023/09/12 14:43:40;;;;;;;18.50;7.50;;;32.30;1.00;;;;;;4935249;29;20441;-83
2023/09/12 14:46:10;;;;;;;12.53;7.27;;;32.40;1.00;;;;;;4944077;29;20649;-83
2023/09/12 14:48:36;;;;;;;13.40;7.40;;;32.50;1.00;;;;;;4942689;29;20424;-84
2023/09/12 14:51:04;;;;;;;12.13;7.20;;;32.60;1.00;;;;;;4947666;29;20819;-83
2023/09/12 14:54:22;;;;;;;14.70;6.97;;;32.50;1.00;;;;;;4940199;29;20203;-83
2023/09/12 14:56:58;;;;;;;12.43;7.00;;;32.50;1.00;;;;;;4945561;29;20436;-83
2023/09/12 14:59:51;;;;;;;16.50;7.60;;;32.50;1.00;;;;;;4939607;29;20790;-83
2023/09/12 15:02:17;;;;;;;16.80;6.77;;;32.50;1.00;;;;;;4941216;29;20424;-83
2023/09/12 15:04:59;;;;;;;10.40;6.30;;;33.40;1.00;;;;;;4936312;29;20930;-84
2023/09/12 15:07:35;;;;;;;16.97;7.30;;;33.50;1.00;;;;;;4924171;29;20418;-82
2023/09/12 15:10:10;;;;;;;13.83;6.57;;;34.20;1.00;;;;;;4938740;29;20435;-82
2023/09/12 15:12:40;;;;;;;23.40;6.77;;;35.30;1.00;;;;;;4947574;29;20458;-82
2023/09/12 15:15:06;;;;;;;11.83;7.23;;;35.90;1.00;;;;;;4935512;29;20456;-82
2023/09/12 15:17:45;;;;;;;21.13;6.83;;;36.50;1.00;;;;;;4923796;29;20448;-85
2023/09/12 15:20:22;;;;;;;15.43;6.53;;;37.00;1.00;;;;;;4930253;29;20930;-83
2023/09/12 15:22:47;;;;;;;17.43;6.80;;;37.30;1.00;;;;;;4935945;29;20450;-83
2023/09/12 15:25:16;;;;;;;14.23;6.50;;;37.50;1.00;;;;;;4937581;29;20430;-84
2023/09/12 15:27:58;;;;;;;18.67;6.43;;;37.60;1.00;;;;;;4943968;29;20252;-85
2023/09/12 15:30:28;;;;;;;13.97;5.70;;;37.70;1.00;;;;;;4936096;29;20515;-84
2023/09/12 15:32:58;;;;;;;16.87;6.47;;;38.00;1.00;;;;;;4943075;29;20473;-82
2023/09/12 15:35:28;;;;;;;14.23;5.70;;;38.30;1.00;;;;;;4940363;29;20419;-82
2023/09/12 15:38:05;;;;;;;10.33;5.60;;;38.60;1.00;;;;;;4946092;29;20461;-83
2023/09/12 15:40:34;;;;;;;10.57;5.43;;;39.00;1.00;;;;;;4929796;29;20903;-82
2023/09/12 15:43:28;;;;;;;9.60;5.63;;;39.50;1.00;;;;;;4935131;29;20431;-82
2023/09/12 15:45:58;;;;;;;17.53;5.57;;;39.90;1.00;;;;;;4925815;29;20431;-86
2023/09/12 15:48:57;;;;;;;16.43;5.90;;;40.50;1.00;;;;;;4938467;29;20426;-85
2023/09/12 15:51:28;;;;;;;8.43;5.60;;;41.00;1.00;;;;;;4950385;29;20583;-85
2023/09/12 15:53:58;;;;;;;16.43;6.20;;;41.20;1.00;;;;;;4930490;29;20478;-86
2023/09/12 15:56:28;;;;;;;10.20;5.60;;;41.30;1.00;;;;;;4937176;29;22044;-85
2023/09/12 15:58:58;;;;;;;14.53;5.67;;;41.20;1.00;;;;;;4933890;29;20461;-84
2023/09/12 16:01:28;;;;;;;15.00;6.00;;;41.20;1.00;;;;;;4939066;29;20422;-88
2023/09/12 16:03:58;;;;;;;10.83;5.90;;;41.00;1.00;;;;;;4939764;29;20455;-85
2023/09/12 16:06:57;;;;;;;11.10;5.83;;;40.90;1.00;;;;;;4949464;28;20423;-85
2023/09/12 16:09:51;;;;;;;14.90;5.90;;;40.10;1.00;;;;;;4945662;29;20514;-85
2023/09/12 16:12:17;;;;;;;10.50;6.00;;;39.80;1.00;;;;;;4935273;29;20444;-86
2023/09/12 16:14:58;;;;;;;13.27;5.80;;;39.10;1.00;;;;;;4943749;29;20466;-85
2023/09/12 16:17:36;;;;;;;17.13;7.30;;;38.20;1.00;;;;;;4928337;29;20744;-85
2023/09/12 16:20:27;;;;;;;12.87;6.83;;;37.40;1.00;;;;;;4936547;29;20419;-91
2023/09/12 16:22:58;;;;;;;41.47;6.73;;;36.50;1.00;;;;;;4938297;29;20427;-92
2023/09/12 16:25:28;;;;;;;23.33;7.13;;;35.80;1.00;;;;;;4938672;29;20462;-92
2023/09/12 16:27:57;;;;;;;14.90;6.73;;;34.70;1.00;;;;;;4932128;29;20928;-90
2023/09/12 16:30:40;;;;;;;13.30;7.33;;;34.50;1.00;;;;;;4931076;29;20993;-92
2023/09/12 16:33:57;;;;;;;14.70;7.57;;;33.90;1.00;;;;;;4936811;29;20466;-93
2023/09/12 16:36:28;;;;;;;21.57;7.60;;;33.30;1.00;;;;;;4921572;29;20515;-91
2023/09/12 16:39:27;;;;;;;17.87;8.23;;;33.00;1.00;;;;;;4929830;29;20420;-91
2023/09/12 16:42:30;;;;;;;16.40;7.80;;;32.40;1.00;;;;;;4932107;29;20492;-89
2023/09/12 16:48:46;;;;;;;18.13;8.33;;;31.80;1.00;;;;;;4929227;29;20459;-90
2023/09/12 16:54:34;;;;;;;16.00;8.70;;;30.90;1.00;;;;;;4928140;29;20864;-90
2023/09/12 17:00:40;;;;;;;25.93;8.53;;;30.00;1.00;;;;;;4941878;29;20549;-92